Time;durP1;ratioP1;P1;durP2;ratioP2;P2;SDS_P1;SDS_P2;PMS_P1;PMS_P2;Temp;Humidity;BMP_temperature;BMP_pressure;BME280_temperature;BME280_humidity;BME280_pressure;Samples;Min_cycle;Max_cycle;Signal;HPM_P1;HPM_P2
2022/05/15 00:02:20;;;;;;;3.47;2.73;;;14.10;59.80;;;;;;960970;149;27410;-75
2022/05/15 00:04:46;;;;;;;2.70;2.50;;;14.10;59.80;;;;;;937656;152;27371;-75
2022/05/15 00:07:13;;;;;;;2.80;2.50;;;14.00;59.90;;;;;;940563;151;27334;-75
2022/05/15 00:09:40;;;;;;;2.80;2.60;;;14.00;60.20;;;;;;960058;149;27316;-75
2022/05/15 00:12:06;;;;;;;2.93;2.70;;;13.90;60.40;;;;;;961943;145;27394;-75
2022/05/15 00:14:33;;;;;;;3.97;2.73;;;13.80;60.70;;;;;;971304;145;27294;-75
2022/05/15 00:16:59;;;;;;;3.10;2.80;;;13.80;60.70;;;;;;969834;145;27349;-75
2022/05/15 00:19:26;;;;;;;4.10;3.40;;;13.70;60.80;;;;;;938253;148;27493;-74
2022/05/15 00:21:53;;;;;;;4.10;3.47;;;13.70;61.00;;;;;;969489;145;27290;-75
2022/05/15 00:24:19;;;;;;;4.03;3.60;;;13.60;61.30;;;;;;969221;145;27459;-74
2022/05/15 00:26:46;;;;;;;6.10;4.07;;;13.60;61.70;;;;;;969111;145;27286;-75
2022/05/15 00:29:12;;;;;;;4.50;3.87;;;13.50;61.90;;;;;;969983;145;27449;-74
2022/05/15 00:31:39;;;;;;;4.87;3.80;;;13.50;62.10;;;;;;967349;145;27349;-75
2022/05/15 00:34:06;;;;;;;4.63;3.57;;;13.40;62.00;;;;;;969572;145;27407;-74
2022/05/15 00:36:33;;;;;;;4.77;4.27;;;13.40;62.10;;;;;;969006;145;27411;-75
2022/05/15 00:38:59;;;;;;;4.50;4.03;;;13.40;62.30;;;;;;954115;147;27332;-75
2022/05/15 00:41:25;;;;;;;6.20;3.97;;;13.30;62.50;;;;;;951997;148;27309;-74
2022/05/15 00:43:52;;;;;;;6.80;4.80;;;13.30;62.80;;;;;;969099;145;27452;-75
2022/05/15 00:46:28;;;;;;;6.03;4.30;;;13.20;62.90;;;;;;950226;148;27426;-74
2022/05/15 00:48:54;;;;;;;5.90;4.40;;;13.20;62.90;;;;;;968409;145;27329;-75
2022/05/15 00:51:21;;;;;;;6.07;3.90;;;13.20;63.10;;;;;;968799;145;27448;-75
2022/05/15 00:53:48;;;;;;;6.30;4.40;;;13.10;63.40;;;;;;952098;148;27332;-75
2022/05/15 00:56:14;;;;;;;4.97;4.17;;;13.10;63.60;;;;;;949899;148;27820;-75
2022/05/15 00:58:41;;;;;;;4.40;3.53;;;13.10;63.70;;;;;;954691;147;27359;-75
2022/05/15 01:01:07;;;;;;;4.00;3.60;;;13.10;63.70;;;;;;937646;148;27467;-75
2022/05/15 01:03:34;;;;;;;4.40;4.00;;;13.10;63.80;;;;;;952932;148;27841;-74
2022/05/15 01:06:00;;;;;;;5.53;4.20;;;13.00;64.00;;;;;;960029;148;27436;-75
2022/05/15 01:08:30;;;;;;;5.87;4.33;;;13.00;64.00;;;;;;969638;145;27392;-75
2022/05/15 01:10:59;;;;;;;4.47;4.07;;;13.00;64.00;;;;;;951390;148;27390;-75
2022/05/15 01:13:25;;;;;;;4.77;3.77;;;13.00;64.30;;;;;;940702;148;27470;-75
2022/05/15 01:15:52;;;;;;;4.47;3.27;;;13.00;64.50;;;;;;949004;146;27368;-75
2022/05/15 01:18:21;;;;;;;4.97;3.50;;;12.90;64.40;;;;;;949142;146;27267;-74
2022/05/15 01:20:48;;;;;;;4.13;3.63;;;12.90;64.40;;;;;;948629;146;27448;-74
2022/05/15 01:23:15;;;;;;;4.30;3.90;;;12.90;64.50;;;;;;934960;149;27424;-74
2022/05/15 01:25:41;;;;;;;3.80;3.30;;;12.90;64.60;;;;;;927431;151;27310;-75
2022/05/15 01:28:08;;;;;;;6.20;4.30;;;12.80;64.60;;;;;;950336;147;27319;-74
2022/05/15 01:30:34;;;;;;;4.90;3.73;;;12.80;64.60;;;;;;949165;147;27330;-74
2022/05/15 01:33:01;;;;;;;4.13;3.47;;;12.70;64.80;;;;;;934188;150;27366;-75
2022/05/15 01:35:27;;;;;;;5.30;4.17;;;12.70;65.00;;;;;;927344;150;28479;-74
2022/05/15 01:37:54;;;;;;;5.27;3.50;;;12.70;66.00;;;;;;943003;149;27648;-75
2022/05/15 01:40:21;;;;;;;7.10;4.40;;;12.60;65.40;;;;;;941948;149;27463;-74
2022/05/15 01:42:47;;;;;;;5.17;3.87;;;12.60;65.40;;;;;;935469;149;27286;-75
2022/05/15 01:45:14;;;;;;;4.47;3.90;;;12.60;65.70;;;;;;939188;149;27463;-75
2022/05/15 01:47:40;;;;;;;5.03;4.23;;;12.60;65.80;;;;;;933515;150;27390;-74
2022/05/15 01:50:07;;;;;;;5.70;4.63;;;12.50;65.90;;;;;;950104;146;27372;-74
2022/05/15 01:52:34;;;;;;;6.63;4.27;;;12.50;65.90;;;;;;949739;146;27444;-74
2022/05/15 01:55:00;;;;;;;5.27;4.77;;;12.50;66.00;;;;;;927627;150;28120;-74
2022/05/15 01:57:27;;;;;;;4.40;3.93;;;12.50;66.30;;;;;;933627;150;27413;-73
2022/05/15 01:59:53;;;;;;;4.87;4.37;;;12.40;66.20;;;;;;950792;147;27359;-75
2022/05/15 02:02:20;;;;;;;10.57;4.20;;;12.40;66.40;;;;;;934948;150;27908;-74
2022/05/15 02:04:47;;;;;;;5.00;4.00;;;12.40;66.40;;;;;;948090;147;27272;-75
2022/05/15 02:07:13;;;;;;;3.90;3.60;;;12.40;66.50;;;;;;950502;147;27348;-75
2022/05/15 02:09:40;;;;;;;4.30;3.90;;;12.30;66.50;;;;;;951145;147;27268;-76
2022/05/15 02:12:08;;;;;;;5.23;4.47;;;12.30;66.70;;;;;;933524;150;27364;-75
2022/05/15 02:14:34;;;;;;;5.87;3.80;;;12.30;67.00;;;;;;962505;146;27415;-75
2022/05/15 02:17:01;;;;;;;4.77;4.00;;;12.30;67.10;;;;;;966670;145;27344;-75
2022/05/15 02:19:27;;;;;;;3.20;2.90;;;12.30;67.10;;;;;;964611;146;27348;-76
2022/05/15 02:21:54;;;;;;;3.60;3.30;;;12.20;67.00;;;;;;964513;146;27290;-75
2022/05/15 02:24:20;;;;;;;3.87;3.57;;;12.20;67.20;;;;;;944899;149;27379;-75
2022/05/15 02:26:47;;;;;;;3.47;3.17;;;12.20;67.50;;;;;;949922;148;27302;-75
2022/05/15 02:29:14;;;;;;;3.93;3.30;;;12.20;67.60;;;;;;948710;149;27456;-75
2022/05/15 02:31:40;;;;;;;4.00;3.17;;;12.10;67.60;;;;;;947864;149;27362;-76
2022/05/15 02:34:07;;;;;;;3.70;3.17;;;12.10;67.70;;;;;;947318;149;27330;-75
2022/05/15 02:36:33;;;;;;;3.73;3.10;;;12.10;67.90;;;;;;947507;149;27793;-75
2022/05/15 02:39:00;;;;;;;4.83;3.43;;;12.10;67.90;;;;;;964841;146;27354;-75
2022/05/15 02:41:27;;;;;;;3.87;3.07;;;12.10;68.20;;;;;;967774;145;27298;-75
2022/05/15 02:43:53;;;;;;;3.53;3.20;;;12.10;68.20;;;;;;964814;146;27354;-75
2022/05/15 02:46:20;;;;;;;3.60;3.30;;;12.10;68.20;;;;;;966034;146;27415;-75
2022/05/15 02:51:31;;;;;;;4.53;3.90;;;12.00;68.20;;;;;;967406;145;27319;-75
2022/05/15 02:53:58;;;;;;;4.50;4.00;;;12.00;68.10;;;;;;967215;145;27301;-75
2022/05/15 02:56:24;;;;;;;4.70;3.83;;;12.00;68.30;;;;;;940956;149;27366;-75
2022/05/15 02:58:51;;;;;;;5.53;4.50;;;11.90;68.30;;;;;;947100;149;27376;-75
2022/05/15 03:01:17;;;;;;;21.80;12.13;;;11.90;68.30;;;;;;949224;148;27248;-75
2022/05/15 03:03:44;;;;;;;10.17;6.77;;;11.90;68.50;;;;;;967598;145;27426;-75
2022/05/15 03:06:11;;;;;;;12.53;7.43;;;11.80;68.50;;;;;;957898;147;27339;-75
2022/05/15 03:08:37;;;;;;;6.33;4.93;;;11.80;68.60;;;;;;950176;148;27433;-74
2022/05/15 03:11:04;;;;;;;7.10;4.93;;;11.70;68.70;;;;;;933767;149;27466;-75
2022/05/15 03:13:30;;;;;;;5.73;4.70;;;11.70;68.70;;;;;;967165;145;28791;-75
2022/05/15 03:15:57;;;;;;;4.00;3.60;;;11.70;69.00;;;;;;970780;145;27336;-75
2022/05/15 03:18:24;;;;;;;6.97;4.07;;;11.60;69.10;;;;;;970239;145;27286;-75
2022/05/15 03:20:50;;;;;;;4.23;3.63;;;11.60;69.40;;;;;;969874;145;27334;-75
2022/05/15 03:23:17;;;;;;;4.17;3.87;;;11.60;69.50;;;;;;970832;145;27402;-75
2022/05/15 03:25:43;;;;;;;4.40;4.00;;;11.50;69.60;;;;;;970294;145;27449;-75
2022/05/15 03:28:10;;;;;;;3.93;3.53;;;11.50;69.90;;;;;;951295;148;27332;-75
2022/05/15 03:30:36;;;;;;;4.53;4.13;;;11.50;69.90;;;;;;949523;148;27343;-75
2022/05/15 03:33:03;;;;;;;4.17;3.77;;;11.50;70.00;;;;;;970296;145;27275;-75
2022/05/15 03:35:30;;;;;;;6.33;4.20;;;11.40;70.00;;;;;;968111;145;27930;-74
2022/05/15 03:37:56;;;;;;;4.13;3.73;;;11.40;70.30;;;;;;968981;145;27345;-75
2022/05/15 03:40:23;;;;;;;4.83;4.43;;;11.40;70.50;;;;;;969469;145;28646;-75
2022/05/15 03:42:49;;;;;;;4.43;3.50;;;11.40;70.80;;;;;;944780;148;27346;-75
2022/05/15 03:45:16;;;;;;;4.17;3.73;;;11.40;70.80;;;;;;952218;148;27449;-75
2022/05/15 03:47:46;;;;;;;3.60;3.30;;;11.40;71.00;;;;;;967304;145;27314;-75
2022/05/15 03:50:12;;;;;;;5.97;3.53;;;11.40;71.20;;;;;;950290;148;27383;-76
2022/05/15 03:52:39;;;;;;;5.53;3.97;;;11.40;71.30;;;;;;970589;145;27287;-75
2022/05/15 03:55:05;;;;;;;5.30;3.70;;;11.40;71.40;;;;;;951151;148;27291;-75
2022/05/15 03:57:32;;;;;;;4.40;3.80;;;11.40;71.60;;;;;;969781;145;27300;-75
2022/05/15 03:59:58;;;;;;;3.83;3.47;;;11.40;71.70;;;;;;949892;148;27336;-75
2022/05/15 04:02:25;;;;;;;4.33;3.77;;;11.50;71.90;;;;;;970129;145;27350;-75
2022/05/15 04:04:51;;;;;;;4.07;3.63;;;11.50;72.70;;;;;;969490;145;27419;-76
2022/05/15 04:07:18;;;;;;;4.13;3.73;;;11.50;71.90;;;;;;952175;148;27429;-75
2022/05/15 04:09:45;;;;;;;4.00;3.70;;;11.60;72.10;;;;;;951758;148;27414;-75
2022/05/15 04:12:11;;;;;;;3.87;3.57;;;11.60;72.10;;;;;;946985;148;27263;-75
2022/05/15 04:14:38;;;;;;;4.00;3.60;;;11.60;72.30;;;;;;969097;145;27390;-75
2022/05/15 04:17:04;;;;;;;4.33;4.00;;;11.70;72.50;;;;;;967113;145;28001;-76
2022/05/15 04:19:31;;;;;;;5.23;3.70;;;11.70;72.70;;;;;;948093;148;27337;-76
2022/05/15 04:22:02;;;;;;;3.70;3.40;;;11.80;73.00;;;;;;958696;149;27270;-75
2022/05/15 04:24:24;;;;;;;4.07;3.67;;;11.90;73.00;;;;;;958411;149;27890;-75
2022/05/15 04:26:51;;;;;;;4.07;3.77;;;12.00;73.20;;;;;;947648;149;27450;-74
2022/05/15 04:29:17;;;;;;;5.77;3.50;;;12.00;73.20;;;;;;946369;148;27336;-76
2022/05/15 04:31:44;;;;;;;4.87;3.80;;;12.10;73.30;;;;;;953584;148;27411;-75
2022/05/15 04:34:11;;;;;;;4.83;3.70;;;12.20;73.50;;;;;;951300;148;27337;-75
2022/05/15 04:36:37;;;;;;;3.50;3.20;;;12.30;73.40;;;;;;949704;148;27318;-75
2022/05/15 04:39:04;;;;;;;4.20;3.77;;;12.40;73.50;;;;;;949914;148;27435;-75
2022/05/15 04:41:30;;;;;;;4.60;3.67;;;12.60;73.80;;;;;;947182;149;28487;-75
2022/05/15 04:43:57;;;;;;;3.60;3.30;;;12.70;73.90;;;;;;939536;148;27308;-75
2022/05/15 04:46:25;;;;;;;4.10;3.70;;;12.80;73.70;;;;;;947913;148;27347;-76
2022/05/15 04:48:50;;;;;;;4.07;3.67;;;13.00;73.90;;;;;;963525;146;27379;-75
2022/05/15 04:51:17;;;;;;;4.87;3.50;;;13.20;74.10;;;;;;947416;148;27404;-75
2022/05/15 04:53:43;;;;;;;4.63;3.47;;;13.40;74.50;;;;;;967261;145;27346;-76
2022/05/15 04:56:10;;;;;;;4.17;3.63;;;13.70;75.10;;;;;;946972;149;27323;-75
2022/05/15 04:58:36;;;;;;;3.83;3.23;;;13.90;75.50;;;;;;948995;148;27299;-76
2022/05/15 05:01:03;;;;;;;4.10;3.30;;;14.30;75.80;;;;;;947929;148;27316;-75
2022/05/15 05:03:30;;;;;;;3.40;3.10;;;14.80;76.40;;;;;;948487;148;27388;-75
2022/05/15 05:05:56;;;;;;;4.08;3.42;;;15.30;77.50;;;;;;948465;148;27371;-75
2022/05/15 05:08:23;;;;;;;4.28;3.50;;;16.00;77.10;;;;;;966842;145;27356;-75
2022/05/15 05:10:49;;;;;;;3.80;3.17;;;16.70;76.30;;;;;;958076;147;27312;-75
2022/05/15 05:13:16;;;;;;;3.55;3.10;;;17.40;74.80;;;;;;950160;148;27431;-75
2022/05/15 05:15:43;;;;;;;3.55;3.10;;;18.10;73.40;;;;;;942079;149;27359;-75
2022/05/15 05:18:09;;;;;;;3.15;2.85;;;18.70;72.00;;;;;;950383;147;27352;-75
2022/05/15 05:20:36;;;;;;;3.08;2.80;;;19.40;70.90;;;;;;926769;150;27431;-76
2022/05/15 05:23:02;;;;;;;2.80;2.60;;;20.00;69.70;;;;;;948312;147;27377;-75
2022/05/15 05:25:29;;;;;;;3.45;3.02;;;20.70;68.30;;;;;;940589;149;27352;-76
2022/05/15 05:27:55;;;;;;;3.72;2.80;;;21.30;67.00;;;;;;950882;147;27263;-76
2022/05/15 05:30:22;;;;;;;3.95;2.83;;;22.00;65.70;;;;;;937897;150;27318;-76
2022/05/15 05:32:49;;;;;;;3.45;2.33;;;22.60;64.40;;;;;;933138;150;27363;-76
2022/05/15 05:35:15;;;;;;;3.02;2.62;;;23.30;63.30;;;;;;933269;150;27400;-76
2022/05/15 05:37:42;;;;;;;2.58;2.37;;;23.90;62.10;;;;;;927843;150;27401;-76
2022/05/15 05:40:08;;;;;;;3.05;2.80;;;24.60;60.90;;;;;;941845;149;27444;-76
2022/05/15 05:42:35;;;;;;;3.40;2.55;;;25.20;59.70;;;;;;941072;149;27449;-76
2022/05/15 05:45:02;;;;;;;2.70;2.50;;;25.80;58.70;;;;;;940971;149;27949;-76
2022/05/15 05:47:28;;;;;;;2.62;2.40;;;26.50;58.00;;;;;;950230;147;27407;-76
2022/05/15 05:49:55;;;;;;;3.58;2.25;;;27.10;56.90;;;;;;926505;150;27780;-76
2022/05/15 05:52:22;;;;;;;2.75;2.55;;;27.70;56.10;;;;;;941148;149;27471;-76
2022/05/15 05:54:48;;;;;;;2.65;2.27;;;28.40;55.40;;;;;;951245;147;27287;-76
2022/05/15 05:57:15;;;;;;;2.67;2.30;;;29.00;54.50;;;;;;950814;147;27323;-74
2022/05/15 05:59:41;;;;;;;2.77;2.58;;;29.60;53.50;;;;;;950762;147;27881;-74
2022/05/15 06:02:08;;;;;;;2.17;1.98;;;30.20;52.50;;;;;;933232;150;27319;-74
2022/05/15 06:04:41;;;;;;;3.45;2.58;;;30.70;51.70;;;;;;950024;146;27283;-74
2022/05/15 06:07:07;;;;;;;2.15;1.95;;;31.20;51.00;;;;;;950717;147;27393;-74
2022/05/15 06:09:33;;;;;;;2.50;2.30;;;31.80;50.20;;;;;;950979;147;27328;-74
2022/05/15 06:12:00;;;;;;;2.40;2.20;;;32.30;49.30;;;;;;935162;150;27467;-74
2022/05/15 06:14:27;;;;;;;3.87;2.15;;;32.80;48.70;;;;;;949817;146;27241;-74
2022/05/15 06:16:53;;;;;;;3.98;2.05;;;33.40;47.80;;;;;;949292;146;27320;-74
2022/05/15 06:19:20;;;;;;;2.67;2.47;;;33.90;46.60;;;;;;950089;146;27808;-74
2022/05/15 06:21:46;;;;;;;2.40;1.90;;;34.40;45.70;;;;;;944419;148;27479;-74
2022/05/15 06:24:13;;;;;;;4.28;2.22;;;34.90;45.10;;;;;;945100;149;27993;-75
2022/05/15 06:26:39;;;;;;;3.08;2.17;;;35.20;44.30;;;;;;945922;149;27327;-76
2022/05/15 06:29:06;;;;;;;2.40;1.95;;;35.60;44.10;;;;;;944289;149;26222;-76
2022/05/15 06:31:33;;;;;;;2.10;1.87;;;35.90;42.90;;;;;;945830;149;27400;-75
2022/05/15 06:33:59;;;;;;;2.75;1.87;;;36.20;42.10;;;;;;935878;150;27342;-75
2022/05/15 06:36:26;;;;;;;3.10;1.95;;;36.50;41.60;;;;;;927881;150;27369;-75
2022/05/15 06:38:52;;;;;;;2.75;1.77;;;36.80;41.20;;;;;;941374;149;26269;-76
2022/05/15 06:41:19;;;;;;;3.35;1.77;;;37.00;40.70;;;;;;941645;149;26234;-76
2022/05/15 06:43:46;;;;;;;1.82;1.70;;;37.40;40.00;;;;;;941055;149;26249;-75
2022/05/15 06:46:12;;;;;;;2.98;1.80;;;37.60;39.40;;;;;;934880;150;26246;-75
2022/05/15 06:48:41;;;;;;;1.85;1.50;;;37.80;38.90;;;;;;926256;150;26288;-74
2022/05/15 06:51:08;;;;;;;2.00;1.47;;;38.00;38.60;;;;;;939460;149;28111;-74
2022/05/15 06:53:35;;;;;;;1.75;1.32;;;38.30;38.10;;;;;;942890;149;26338;-76
2022/05/15 06:58:46;;;;;;;2.65;1.67;;;38.80;36.80;;;;;;945005;149;27355;-76
2022/05/15 07:01:13;;;;;;;2.40;1.77;;;38.90;36.40;;;;;;944068;149;27459;-74
2022/05/15 07:03:39;;;;;;;2.30;1.60;;;39.10;35.90;;;;;;944089;149;26269;-76
2022/05/15 07:06:07;;;;;;;3.02;1.70;;;39.20;35.30;;;;;;943663;149;26339;-75
2022/05/15 07:08:33;;;;;;;2.20;1.60;;;39.40;35.10;;;;;;944055;149;27358;-76
2022/05/15 07:10:59;;;;;;;3.35;1.80;;;39.60;34.60;;;;;;943434;149;27396;-76
2022/05/15 07:13:26;;;;;;;3.08;1.72;;;39.70;34.30;;;;;;944286;149;26261;-75
2022/05/15 07:15:52;;;;;;;2.45;1.70;;;39.80;34.00;;;;;;935800;149;26359;-76
2022/05/15 07:18:21;;;;;;;1.82;1.52;;;40.00;34.10;;;;;;927551;150;27762;-76
2022/05/15 07:20:46;;;;;;;5.10;2.00;;;40.20;33.80;;;;;;942725;149;26308;-76
2022/05/15 07:23:12;;;;;;;2.25;1.42;;;40.40;33.70;;;;;;941051;149;26349;-76
2022/05/15 07:25:39;;;;;;;3.30;1.67;;;40.80;33.30;;;;;;945422;149;26201;-76
2022/05/15 07:28:05;;;;;;;2.02;1.65;;;41.10;32.90;;;;;;935402;149;26347;-75
2022/05/15 07:30:32;;;;;;;1.85;1.40;;;41.60;32.60;;;;;;922532;149;27797;-76
2022/05/15 07:32:58;;;;;;;1.92;1.40;;;41.90;32.00;;;;;;948222;147;26283;-76
2022/05/15 07:35:25;;;;;;;3.40;1.67;;;42.20;31.30;;;;;;940949;149;26174;-77
2022/05/15 07:37:51;;;;;;;2.92;1.65;;;42.50;30.90;;;;;;941588;149;26237;-75
2022/05/15 07:40:18;;;;;;;2.35;1.47;;;42.70;30.00;;;;;;941509;149;26315;-75
2022/05/15 07:42:45;;;;;;;1.90;1.40;;;42.90;29.90;;;;;;950718;147;26244;-76
2022/05/15 07:45:11;;;;;;;1.67;1.55;;;42.90;29.60;;;;;;950092;147;26250;-77
2022/05/15 07:47:38;;;;;;;2.65;1.87;;;43.00;29.40;;;;;;950578;147;26301;-76
2022/05/15 07:50:05;;;;;;;1.70;1.50;;;42.90;28.90;;;;;;949820;147;26294;-76
2022/05/15 07:52:31;;;;;;;3.58;1.72;;;42.80;28.80;;;;;;950353;147;26345;-75
2022/05/15 07:54:58;;;;;;;1.42;1.32;;;42.70;28.90;;;;;;951141;147;26264;-77
2022/05/15 07:57:24;;;;;;;3.02;1.42;;;42.50;28.80;;;;;;927862;150;26380;-75
2022/05/15 07:59:51;;;;;;;2.40;1.40;;;42.50;28.80;;;;;;927552;150;26199;-76
2022/05/15 08:02:17;;;;;;;2.67;1.60;;;42.40;28.80;;;;;;947379;148;26224;-76
2022/05/15 08:10:13;;;;;;;2.83;1.50;;;42.50;28.50;;;;;;947442;148;26287;-77
2022/05/15 08:12:40;;;;;;;2.92;2.05;;;42.50;28.50;;;;;;947910;148;26276;-76
2022/05/15 08:15:07;;;;;;;1.90;1.45;;;42.60;28.10;;;;;;948290;148;26231;-76
2022/05/15 08:17:33;;;;;;;2.58;1.67;;;42.60;28.00;;;;;;944529;149;26364;-77
2022/05/15 08:25:26;;;;;;;1.80;1.22;;;42.80;28.10;;;;;;941021;151;27504;-75
2022/05/15 08:27:52;;;;;;;1.98;1.40;;;43.00;27.90;;;;;;940456;151;26200;-75
2022/05/15 08:30:20;;;;;;;3.05;1.87;;;43.10;28.00;;;;;;940098;151;26517;-79
2022/05/15 08:32:45;;;;;;;4.03;1.80;;;43.20;27.60;;;;;;940836;151;26205;-80
2022/05/15 08:35:12;;;;;;;5.72;2.40;;;43.30;27.40;;;;;;939890;151;26361;-80
2022/05/15 08:37:40;;;;;;;2.37;1.70;;;43.40;27.00;;;;;;942756;151;26356;-81
2022/05/15 08:40:05;;;;;;;1.77;1.30;;;43.40;27.00;;;;;;939748;151;26233;-81
2022/05/15 08:42:50;;;;;;;2.72;1.72;;;43.30;26.80;;;;;;940785;151;26255;-81
2022/05/15 08:45:17;;;;;;;2.67;1.57;;;43.20;26.30;;;;;;942199;151;26249;-81
2022/05/15 08:47:43;;;;;;;4.12;1.47;;;43.10;26.90;;;;;;942401;151;26272;-79
2022/05/15 08:50:15;;;;;;;4.22;1.75;;;43.00;26.90;;;;;;941480;151;27919;-80
2022/05/15 08:52:57;;;;;;;2.17;1.50;;;43.00;26.80;;;;;;924135;152;26295;-82
2022/05/15 08:55:36;;;;;;;3.30;1.50;;;43.10;27.10;;;;;;941227;152;26237;-81
2022/05/15 08:58:11;;;;;;;1.90;1.30;;;43.20;27.00;;;;;;952911;149;26233;-81
2022/05/15 09:00:43;;;;;;;2.83;1.52;;;43.40;26.70;;;;;;935739;153;26261;-79
2022/05/15 09:03:22;;;;;;;2.22;1.55;;;43.60;26.60;;;;;;927205;154;26343;-82
2022/05/15 09:05:54;;;;;;;2.75;1.50;;;43.70;26.50;;;;;;952768;150;26192;-81
2022/05/15 09:08:52;;;;;;;2.58;1.50;;;43.80;26.50;;;;;;952838;150;26229;-81
2022/05/15 09:11:32;;;;;;;2.45;1.70;;;43.80;26.20;;;;;;936131;153;26254;-80
2022/05/15 09:13:59;;;;;;;2.92;1.80;;;43.90;26.30;;;;;;936287;152;26262;-80
2022/05/15 09:16:26;;;;;;;3.67;1.70;;;44.00;26.00;;;;;;926584;152;26322;-81
2022/05/15 09:18:52;;;;;;;2.58;1.65;;;44.00;25.90;;;;;;944258;148;26258;-81
2022/05/15 09:21:19;;;;;;;3.98;1.80;;;44.00;25.70;;;;;;934755;148;26271;-79
2022/05/15 09:23:51;;;;;;;1.80;1.57;;;43.90;25.50;;;;;;965068;146;26301;-80
2022/05/15 09:26:20;;;;;;;3.52;1.80;;;43.70;25.50;;;;;;965997;146;26242;-81
2022/05/15 09:28:47;;;;;;;2.45;1.67;;;43.40;25.30;;;;;;946788;148;26350;-81
2022/05/15 09:31:35;;;;;;;3.15;1.50;;;43.10;25.40;;;;;;942350;149;26342;-81
2022/05/15 09:34:28;;;;;;;2.52;1.52;;;42.70;25.40;;;;;;964642;146;26191;-82
2022/05/15 09:38:27;;;;;;;2.55;1.60;;;42.50;25.60;;;;;;919592;149;26364;-79
2022/05/15 09:39:37;;;;;;;3.02;1.80;;;42.10;25.60;;;;;;961857;146;26263;-82
2022/05/15 09:45:18;;;;;;;1.90;1.50;;;41.60;25.90;;;;;;965115;146;26255;-82
2022/05/15 09:47:45;;;;;;;2.72;1.50;;;41.40;25.80;;;;;;959427;148;26204;-81
2022/05/15 09:50:30;;;;;;;3.30;1.67;;;41.20;25.90;;;;;;954381;149;26301;-82
2022/05/15 09:52:56;;;;;;;1.47;1.27;;;40.90;25.90;;;;;;944808;146;26357;-81
2022/05/15 09:55:23;;;;;;;2.37;1.82;;;40.70;26.00;;;;;;950019;148;27377;-78
2022/05/15 09:57:58;;;;;;;2.72;1.80;;;40.40;25.90;;;;;;942229;149;26289;-81
2022/05/15 10:00:25;;;;;;;2.85;1.87;;;40.20;25.90;;;;;;960055;148;26633;-82
2022/05/15 10:02:52;;;;;;;2.35;1.20;;;39.80;25.90;;;;;;960716;148;26172;-82
2022/05/15 10:05:21;;;;;;;3.83;1.22;;;39.50;26.20;;;;;;964051;146;26292;-80
2022/05/15 10:07:59;;;;;;;1.60;1.50;;;39.20;26.20;;;;;;965309;146;26331;-81
2022/05/15 10:10:26;;;;;;;5.17;1.32;;;38.90;26.00;;;;;;946914;149;27361;-80
2022/05/15 10:12:53;;;;;;;2.52;1.70;;;38.50;26.20;;;;;;942311;149;26352;-81
2022/05/15 10:15:19;;;;;;;2.42;1.60;;;38.10;26.20;;;;;;959357;149;27394;-80
2022/05/15 10:17:55;;;;;;;1.92;1.47;;;37.70;26.30;;;;;;946013;148;27321;-81
2022/05/15 10:20:25;;;;;;;1.92;1.32;;;37.30;26.60;;;;;;946878;149;27368;-78
2022/05/15 10:23:03;;;;;;;1.82;1.62;;;36.90;26.70;;;;;;957946;148;27412;-80
2022/05/15 10:25:44;;;;;;;4.15;1.50;;;36.60;26.90;;;;;;960033;148;27339;-81
2022/05/15 10:28:30;;;;;;;1.12;1.00;;;36.40;27.20;;;;;;958133;148;27344;-80
2022/05/15 10:30:59;;;;;;;3.35;2.05;;;36.30;27.40;;;;;;956834;148;27304;-81
2022/05/15 10:33:25;;;;;;;2.98;1.52;;;36.10;27.30;;;;;;959763;148;27425;-81
2022/05/15 10:36:19;;;;;;;2.02;1.40;;;36.00;27.20;;;;;;959332;148;27331;-81
2022/05/15 10:38:51;;;;;;;3.35;1.62;;;35.80;27.20;;;;;;958338;148;27272;-81
2022/05/15 10:41:19;;;;;;;2.12;1.45;;;35.60;27.20;;;;;;965331;145;27392;-81
2022/05/15 10:43:54;;;;;;;1.85;1.30;;;35.40;27.40;;;;;;941860;149;27392;-81
2022/05/15 10:46:30;;;;;;;4.67;1.50;;;35.20;27.50;;;;;;963495;146;27300;-79
2022/05/15 10:49:14;;;;;;;1.50;1.40;;;34.90;27.60;;;;;;963224;146;27444;-80
2022/05/15 10:51:44;;;;;;;3.50;1.65;;;34.60;27.60;;;;;;964719;146;27402;-81
2022/05/15 10:57:22;;;;;;;1.90;1.17;;;34.00;27.70;;;;;;964269;146;27304;-80
2022/05/15 11:00:09;;;;;;;1.82;1.30;;;33.60;27.80;;;;;;963269;146;27316;-80
2022/05/15 11:02:42;;;;;;;1.75;1.20;;;33.20;28.00;;;;;;946305;149;27439;-80
2022/05/15 11:05:21;;;;;;;1.60;1.00;;;32.90;28.00;;;;;;966206;145;27338;-76
2022/05/15 11:07:47;;;;;;;2.05;1.35;;;32.60;27.70;;;;;;941407;149;27743;-80
2022/05/15 11:10:20;;;;;;;2.47;1.22;;;32.40;27.70;;;;;;946570;148;27428;-80
2022/05/15 11:12:49;;;;;;;2.27;1.37;;;32.10;27.90;;;;;;947517;148;27357;-80
2022/05/15 11:15:46;;;;;;;3.75;1.10;;;31.80;28.10;;;;;;945984;148;27368;-80
2022/05/15 11:18:31;;;;;;;2.02;1.22;;;31.50;28.30;;;;;;940439;149;27390;-80
2022/05/15 11:21:01;;;;;;;1.75;1.20;;;31.30;28.70;;;;;;942346;148;27386;-80
2022/05/15 11:23:42;;;;;;;2.58;1.40;;;31.10;28.90;;;;;;946726;149;27346;-80
2022/05/15 11:26:15;;;;;;;1.40;1.20;;;31.00;29.00;;;;;;943088;149;27349;-78
2022/05/15 11:28:42;;;;;;;1.30;1.17;;;30.90;29.00;;;;;;956255;148;27244;-81
2022/05/15 11:31:09;;;;;;;1.40;1.30;;;30.80;28.90;;;;;;964172;146;27336;-77
2022/05/15 11:33:43;;;;;;;1.80;1.37;;;30.80;29.20;;;;;;945921;149;27438;-80
2022/05/15 11:36:22;;;;;;;5.78;1.60;;;30.70;29.40;;;;;;964272;146;27303;-80
2022/05/15 11:38:49;;;;;;;1.82;1.15;;;30.50;29.40;;;;;;934967;148;27349;-81
2022/05/15 11:41:37;;;;;;;1.57;1.20;;;30.50;29.40;;;;;;941187;149;27322;-78
2022/05/15 11:44:09;;;;;;;2.10;1.30;;;30.40;29.50;;;;;;964045;146;27336;-81
2022/05/15 11:46:45;;;;;;;2.00;1.40;;;30.30;29.40;;;;;;963433;146;27452;-81
2022/05/15 11:49:27;;;;;;;1.90;1.42;;;30.30;29.40;;;;;;946611;148;27459;-77
2022/05/15 11:52:11;;;;;;;1.92;1.47;;;30.20;29.40;;;;;;935325;149;27508;-82
2022/05/15 11:54:34;;;;;;;2.33;1.40;;;30.20;29.60;;;;;;946590;148;27340;-81
2022/05/15 11:57:01;;;;;;;4.45;1.40;;;30.20;29.60;;;;;;947121;148;27340;-79
2022/05/15 11:59:28;;;;;;;1.32;1.20;;;30.10;29.50;;;;;;940126;148;27388;-77
2022/05/15 12:01:57;;;;;;;1.10;1.05;;;30.10;29.70;;;;;;963788;146;27427;-76
2022/05/15 12:04:36;;;;;;;2.98;1.30;;;30.10;29.80;;;;;;943372;149;27310;-79
2022/05/15 12:07:02;;;;;;;1.70;1.20;;;30.10;29.80;;;;;;958688;149;27409;-80
2022/05/15 12:09:29;;;;;;;2.08;1.47;;;30.10;29.80;;;;;;965292;146;27330;-81
2022/05/15 12:11:57;;;;;;;2.45;1.85;;;30.00;29.80;;;;;;951640;148;27325;-79
2022/05/15 12:14:25;;;;;;;3.05;1.05;;;30.00;29.70;;;;;;946508;149;27349;-80
2022/05/15 12:17:16;;;;;;;1.60;1.37;;;30.00;29.70;;;;;;962550;146;27331;-81
2022/05/15 12:19:43;;;;;;;1.12;1.07;;;29.90;29.60;;;;;;927132;152;27500;-81
2022/05/15 12:22:10;;;;;;;1.90;1.12;;;29.90;29.50;;;;;;945869;148;27396;-77
2022/05/15 12:24:36;;;;;;;2.70;1.45;;;29.80;29.60;;;;;;968882;145;27315;-79
2022/05/15 12:27:19;;;;;;;2.60;1.50;;;29.70;29.60;;;;;;968946;145;27345;-76
2022/05/15 12:30:04;;;;;;;1.20;1.00;;;29.60;29.60;;;;;;968732;145;27306;-79
2022/05/15 12:32:39;;;;;;;1.17;1.05;;;29.60;29.60;;;;;;968372;145;27222;-77
2022/05/15 12:35:06;;;;;;;1.30;1.10;;;29.50;29.70;;;;;;952264;148;27412;-78
2022/05/15 12:37:33;;;;;;;1.62;1.20;;;29.40;29.60;;;;;;969345;145;27327;-76
2022/05/15 12:39:59;;;;;;;1.30;1.12;;;29.30;29.60;;;;;;948615;148;27347;-77
2022/05/15 12:42:34;;;;;;;1.22;1.10;;;29.20;29.80;;;;;;968990;145;27303;-81
2022/05/15 12:45:01;;;;;;;1.10;1.00;;;29.20;29.80;;;;;;969000;145;27740;-80
2022/05/15 12:47:32;;;;;;;1.35;1.10;;;29.20;29.90;;;;;;969242;145;27335;-77
2022/05/15 12:49:58;;;;;;;2.47;1.40;;;29.20;30.00;;;;;;967759;145;27720;-77
2022/05/15 12:52:27;;;;;;;1.35;1.25;;;29.20;30.00;;;;;;967752;145;27491;-79
2022/05/15 12:54:59;;;;;;;2.30;1.30;;;29.30;30.00;;;;;;950459;148;27344;-76
2022/05/15 12:57:25;;;;;;;1.20;1.05;;;29.40;30.00;;;;;;947352;148;27404;-77
2022/05/15 12:59:53;;;;;;;2.30;1.37;;;29.50;30.00;;;;;;968055;145;27443;-79
2022/05/15 13:02:33;;;;;;;4.08;1.82;;;29.60;30.00;;;;;;947794;148;28568;-80
2022/05/15 13:05:00;;;;;;;2.75;1.40;;;29.60;30.00;;;;;;968495;145;27349;-78
2022/05/15 13:07:27;;;;;;;1.00;0.90;;;29.80;30.00;;;;;;968700;145;27405;-77
2022/05/15 13:09:56;;;;;;;1.42;1.15;;;29.80;30.00;;;;;;968178;145;27422;-78
2022/05/15 13:12:23;;;;;;;2.60;2.20;;;29.80;29.90;;;;;;970125;145;27365;-76
2022/05/15 13:14:49;;;;;;;2.22;1.30;;;29.90;29.80;;;;;;952144;148;27933;-76
2022/05/15 13:17:16;;;;;;;1.32;1.20;;;29.90;29.70;;;;;;966730;145;27286;-77